Time;durP1;ratioP1;P1;durP2;ratioP2;P2;SDS_P1;SDS_P2;PMS_P1;PMS_P2;Temp;Humidity;BMP_temperature;BMP_pressure;BME280_temperature;BME280_humidity;BME280_pressure;Samples;Min_cycle;Max_cycle;Signal;HPM_P1;HPM_P2
2021/11/21 00:00:15;;;;;;;2.79;1.61;;;;;;;4.37;65.96;100075.23;456541;113;922393;-84
2021/11/21 00:01:36;;;;;;;1.81;1.39;;;;;;;4.35;66.01;100078.16;456564;114;922832;-84
2021/11/21 00:02:45;;;;;;;1.68;1.57;;;;;;;4.33;65.93;100074.79;456475;114;922556;-84
2021/11/21 00:03:49;;;;;;;2.02;1.58;;;;;;;4.30;65.90;100074.34;456464;115;922951;-83
2021/11/21 00:04:53;;;;;;;1.96;1.64;;;;;;;4.28;65.91;100070.97;457026;114;922938;-83
2021/11/21 00:06:06;;;;;;;2.28;1.62;;;;;;;4.27;65.94;100075.53;457277;114;922430;-84
2021/11/21 00:07:12;;;;;;;1.78;1.44;;;;;;;4.27;66.00;100077.39;456540;113;922905;-85
2021/11/21 00:08:16;;;;;;;1.80;1.33;;;;;;;4.25;65.98;100080.27;456934;113;922374;-84
2021/11/21 00:09:19;;;;;;;1.39;1.22;;;;;;;4.23;65.95;100079.63;457205;115;922665;-84
2021/11/21 00:10:43;;;;;;;3.33;2.24;;;;;;;4.22;65.96;100077.95;457136;114;922557;-85
2021/11/21 00:11:48;;;;;;;2.64;2.14;;;;;;;4.20;65.97;100086.23;457267;114;922634;-83
2021/11/21 00:12:53;;;;;;;2.26;1.89;;;;;;;4.21;66.03;100084.37;457608;114;923389;-83
2021/11/21 00:13:58;;;;;;;2.69;2.20;;;;;;;4.20;66.06;100086.23;458022;113;923330;-84
2021/11/21 00:15:20;;;;;;;2.57;2.26;;;;;;;4.20;65.95;100083.53;456876;114;922641;-84
2021/11/21 00:16:24;;;;;;;5.04;3.19;;;;;;;4.18;65.90;100098.24;456593;114;922568;-84
2021/11/21 00:17:28;;;;;;;2.29;1.95;;;;;;;4.16;65.89;100089.48;456834;114;922649;-85
2021/11/21 00:18:33;;;;;;;4.12;3.72;;;;;;;4.14;65.89;100094.22;456621;114;923390;-85
2021/11/21 00:19:39;;;;;;;4.82;4.38;;;;;;;4.12;65.87;100102.52;458040;113;922652;-84
2021/11/21 00:20:44;;;;;;;3.73;3.35;;;;;;;4.11;65.87;100100.00;456787;114;930719;-85
2021/11/21 00:21:49;;;;;;;3.81;3.49;;;;;;;4.10;65.90;100114.50;456832;114;922748;-85
2021/11/21 00:22:53;;;;;;;3.76;3.45;;;;;;;4.09;65.90;100110.12;456930;114;922694;-84
2021/11/21 00:23:57;;;;;;;3.23;2.93;;;;;;;4.08;65.86;100119.27;455781;113;922850;-85
2021/11/21 00:25:03;;;;;;;3.51;3.21;;;;;;;4.05;65.85;100115.06;456430;114;923764;-85
2021/11/21 00:26:07;;;;;;;4.42;3.66;;;;;;;4.04;65.92;100113.38;456033;114;922614;-85
2021/11/21 00:27:11;;;;;;;4.17;3.81;;;;;;;4.03;65.91;100122.48;456613;114;922962;-86
2021/11/21 00:28:15;;;;;;;3.95;3.59;;;;;;;4.03;65.87;100116.25;456663;114;922578;-85
2021/11/21 00:29:18;;;;;;;3.28;3.01;;;;;;;4.01;65.91;100121.86;456994;113;922601;-84
2021/11/21 00:30:23;;;;;;;4.44;3.26;;;;;;;4.00;65.89;100122.03;456299;115;922620;-84
2021/11/21 00:31:27;;;;;;;4.76;3.59;;;;;;;3.99;65.94;100125.74;456591;113;922694;-84
2021/11/21 00:32:31;;;;;;;3.24;2.98;;;;;;;4.00;66.02;100130.97;456870;113;922984;-84
2021/11/21 00:33:35;;;;;;;3.35;3.05;;;;;;;4.00;65.95;100127.42;455829;114;922533;-83
2021/11/21 00:34:39;;;;;;;3.19;2.83;;;;;;;4.00;65.93;100120.17;456829;114;922651;-84
2021/11/21 00:35:43;;;;;;;2.93;2.72;;;;;;;4.00;65.94;100117.48;456127;114;922568;-84
2021/11/21 00:36:47;;;;;;;2.90;2.67;;;;;;;4.01;65.96;100123.71;457533;114;922696;-83
2021/11/21 00:37:51;;;;;;;2.71;2.51;;;;;;;4.02;65.95;100120.00;457295;113;922715;-84
2021/11/21 00:38:56;;;;;;;2.81;2.48;;;;;;;4.02;65.96;100111.91;457636;114;922654;-84
2021/11/21 00:40:00;;;;;;;1.64;1.54;;;;;;;4.03;65.95;100108.16;456746;114;922593;-83
2021/11/21 00:41:05;;;;;;;1.51;1.41;;;;;;;4.03;65.87;100110.86;457156;113;922633;-83
2021/11/21 00:42:10;;;;;;;1.50;1.40;;;;;;;4.03;65.85;100108.16;456384;114;923097;-84
2021/11/21 00:43:15;;;;;;;1.35;1.21;;;;;;;4.03;65.80;100113.55;456286;114;922681;-84
2021/11/21 00:44:19;;;;;;;1.42;1.04;;;;;;;4.02;65.76;100115.45;457994;112;922676;-85
2021/11/21 00:45:24;;;;;;;1.02;0.91;;;;;;;3.98;65.92;100122.20;461446;112;922960;-85
2021/11/21 00:46:28;;;;;;;1.46;0.72;;;;;;;3.98;65.92;100122.20;460660;112;923229;-85
2021/11/21 00:47:40;;;;;;;2.48;1.97;;;;;;;3.96;65.64;100121.57;462101;112;922607;-82
2021/11/21 00:48:43;;;;;;;2.74;2.41;;;;;;;3.93;65.66;100121.08;460313;112;923104;-84
2021/11/21 00:49:47;;;;;;;4.50;4.11;;;;;;;3.91;65.70;100123.14;460283;113;930420;-84
2021/11/21 00:50:58;;;;;;;5.81;4.99;;;;;;;3.88;65.70;100124.33;461416;112;930716;-84
2021/11/21 00:52:02;;;;;;;6.60;5.87;;;;;;;3.86;65.78;100118.27;460690;112;930602;-84
2021/11/21 00:53:07;;;;;;;7.98;7.28;;;;;;;3.86;65.85;100122.86;461770;111;923197;-83
2021/11/21 00:56:43;;;;;;;6.38;5.84;;;;;;;3.82;65.89;100108.03;461848;112;922478;-83
2021/11/21 00:57:46;;;;;;;5.04;4.64;;;;;;;3.80;65.95;100107.41;461514;111;923039;-82
2021/11/21 00:58:50;;;;;;;2.48;2.24;;;;;;;3.80;66.04;100096.62;461093;113;922651;-84
2021/11/21 00:59:54;;;;;;;2.37;1.96;;;;;;;3.79;66.06;100114.66;461652;111;922640;-84
2021/11/21 01:01:00;;;;;;;1.78;1.57;;;;;;;3.77;66.12;100108.59;462549;112;922666;-84
2021/11/21 01:02:09;;;;;;;2.10;1.36;;;;;;;3.75;66.13;100113.31;461534;112;923007;-85
2021/11/21 01:03:13;;;;;;;1.52;1.36;;;;;;;3.73;66.15;100113.52;462967;112;922866;-85
2021/11/21 01:04:17;;;;;;;1.52;1.33;;;;;;;3.72;66.13;100116.39;461935;111;922542;-84
2021/11/21 01:05:21;;;;;;;1.22;1.11;;;;;;;3.70;66.21;100121.11;454754;114;922921;-83
2021/11/21 01:06:25;;;;;;;1.85;1.51;;;;;;;3.70;66.30;100121.11;455607;114;923214;-85
2021/11/21 01:07:29;;;;;;;2.35;1.30;;;;;;;3.70;66.27;100130.05;461991;112;930191;-84
2021/11/21 01:08:33;;;;;;;1.39;1.29;;;;;;;3.68;66.29;100134.80;462122;111;922814;-85
2021/11/21 01:09:37;;;;;;;1.10;1.00;;;;;;;3.67;66.29;100127.73;460320;112;930194;-84
2021/11/21 01:10:43;;;;;;;0.86;0.84;;;;;;;3.67;66.38;100132.28;461128;112;922691;-85
2021/11/21 01:11:46;;;;;;;1.44;1.06;;;;;;;3.67;66.42;100130.42;462318;112;922648;-85
2021/11/21 01:12:53;;;;;;;1.53;1.14;;;;;;;3.68;66.41;100117.78;461439;112;922890;-85
2021/11/21 01:13:57;;;;;;;1.49;0.74;;;;;;;3.69;66.52;100124.86;461906;112;922681;-84
2021/11/21 01:15:04;;;;;;;1.68;1.12;;;;;;;3.71;66.58;100129.03;462288;111;922727;-84
2021/11/21 01:16:09;;;;;;;0.83;0.73;;;;;;;3.74;66.57;100125.15;461132;112;922821;-84
2021/11/21 01:17:13;;;;;;;1.25;0.74;;;;;;;3.75;66.59;100124.94;462131;112;922901;-83
2021/11/21 01:18:19;;;;;;;1.21;0.85;;;;;;;3.77;66.59;100122.91;461806;112;922670;-83
2021/11/21 01:19:23;;;;;;;1.10;0.89;;;;;;;3.80;66.57;100126.28;461278;112;923118;-83
2021/11/21 01:20:30;;;;;;;0.92;0.79;;;;;;;3.82;66.54;100121.52;462223;112;922857;-84
2021/11/21 01:21:34;;;;;;;1.29;1.00;;;;;;;3.83;66.43;100120.51;462235;113;930320;-84
2021/11/21 01:22:57;;;;;;;1.58;1.00;;;;;;;3.84;66.37;100127.58;462317;111;922995;-85
2021/11/21 01:24:01;;;;;;;1.49;0.91;;;;;;;3.83;66.33;100136.69;462690;111;930319;-86
2021/11/21 01:25:07;;;;;;;1.75;1.20;;;;;;;3.81;66.30;100125.23;461858;113;922544;-84
2021/11/21 01:26:11;;;;;;;1.48;1.14;;;;;;;3.80;66.25;100124.42;461725;112;922614;-84
2021/11/21 01:27:15;;;;;;;1.33;1.15;;;;;;;3.78;66.26;100118.36;462207;111;923162;-84
2021/11/21 01:28:19;;;;;;;1.36;1.26;;;;;;;3.77;66.32;100120.22;461784;112;922860;-84
2021/11/21 01:29:22;;;;;;;1.29;1.00;;;;;;;3.77;66.33;100131.00;462929;111;923003;-84
2021/11/21 01:30:29;;;;;;;1.39;1.14;;;;;;;3.76;66.33;100121.23;461201;112;930454;-84
2021/11/21 01:31:33;;;;;;;1.77;1.04;;;;;;;3.75;66.30;100130.34;460783;111;922572;-84
2021/11/21 01:32:37;;;;;;;1.35;1.22;;;;;;;3.74;66.37;100125.98;461198;113;922959;-85
2021/11/21 01:35:11;;;;;;;1.86;1.32;;;;;;;3.74;66.45;100123.30;461221;112;923098;-85
2021/11/21 01:36:15;;;;;;;1.54;1.09;;;;;;;3.75;66.50;100122.25;462058;112;922802;-84
2021/11/21 01:37:19;;;;;;;1.29;1.01;;;;;;;3.76;66.54;100126.62;462211;112;922818;-84
2021/11/21 01:38:23;;;;;;;1.36;1.02;;;;;;;3.77;66.61;100128.31;463096;111;922877;-85
2021/11/21 01:39:27;;;;;;;1.76;1.24;;;;;;;3.80;66.68;100128.98;461835;111;922861;-84
2021/11/21 01:40:31;;;;;;;1.45;1.22;;;;;;;3.81;66.64;100133.33;462361;113;922451;-84
2021/11/21 01:41:36;;;;;;;1.91;1.18;;;;;;;3.81;66.64;100120.68;462108;112;922372;-84
2021/11/21 01:44:12;;;;;;;1.51;1.20;;;;;;;3.82;66.74;100126.91;456440;113;922558;-84
2021/11/21 01:45:17;;;;;;;1.66;1.14;;;;;;;3.84;66.68;100130.28;462492;112;922442;-85
2021/11/21 01:46:33;;;;;;;2.23;1.81;;;;;;;3.85;66.71;100131.96;461361;111;922486;-83
2021/11/21 01:47:39;;;;;;;5.11;4.64;;;;;;;3.84;66.64;100130.28;462091;112;922464;-86
2021/11/21 01:48:51;;;;;;;5.01;4.52;;;;;;;3.81;66.59;100120.68;461735;111;922638;-84
2021/11/21 01:49:55;;;;;;;4.92;4.42;;;;;;;3.77;66.63;100128.31;459816;112;923535;-84
2021/11/21 01:51:03;;;;;;;4.34;3.85;;;;;;;3.76;66.68;100136.56;460926;112;922632;-84
2021/11/21 01:52:06;;;;;;;3.44;3.12;;;;;;;3.74;66.71;100130.54;460466;113;922644;-84
2021/11/21 01:53:11;;;;;;;4.19;3.61;;;;;;;3.72;66.83;100141.50;461090;112;922719;-84
2021/11/21 01:54:17;;;;;;;3.56;3.26;;;;;;;3.70;66.83;100140.83;461687;112;922739;-84
2021/11/21 01:55:21;;;;;;;3.61;3.31;;;;;;;3.67;66.84;100154.69;460936;114;922623;-84
2021/11/21 01:56:27;;;;;;;3.90;3.53;;;;;;;3.64;66.92;100154.19;461940;111;923046;-83
2021/11/21 01:57:32;;;;;;;3.38;3.08;;;;;;;3.61;66.87;100152.71;461552;112;922642;-83
2021/11/21 01:58:38;;;;;;;3.69;2.87;;;;;;;3.58;66.94;100150.39;454172;113;923136;-84
2021/11/21 01:59:43;;;;;;;3.41;2.71;;;;;;;3.58;67.08;100163.03;454251;114;923479;-83
2021/11/21 02:00:48;;;;;;;2.68;2.44;;;;;;;3.58;67.18;100171.11;461933;112;922932;-85
2021/11/21 02:01:53;;;;;;;2.42;1.92;;;;;;;3.57;67.19;100172.97;461518;112;922557;-84
2021/11/21 02:02:57;;;;;;;2.43;2.23;;;;;;;3.54;67.16;100172.47;461717;112;922491;-83
2021/11/21 02:04:01;;;;;;;1.88;1.64;;;;;;;3.53;67.23;100173.51;461980;113;922688;-85
2021/11/21 02:05:15;;;;;;;1.61;1.17;;;;;;;3.51;67.30;100167.45;461241;111;922619;-84
2021/11/21 02:06:44;;;;;;;1.59;1.31;;;;;;;3.51;67.36;100170.14;459224;112;923439;-84
2021/11/21 02:07:49;;;;;;;1.59;1.13;;;;;;;3.50;67.49;100174.69;462035;112;930483;-84
2021/11/21 02:08:54;;;;;;;2.07;1.31;;;;;;;3.50;67.58;100174.69;461875;112;922637;-84
2021/11/21 02:10:07;;;;;;;1.63;1.32;;;;;;;3.50;67.54;100174.69;461433;112;922769;-84
2021/11/21 02:11:30;;;;;;;2.37;1.08;;;;;;;3.49;67.63;100181.09;453324;114;923315;-84
2021/11/21 02:12:34;;;;;;;1.13;0.99;;;;;;;3.47;67.69;100175.06;455190;114;922646;-83
2021/11/21 02:13:37;;;;;;;1.26;1.12;;;;;;;3.47;67.79;100180.45;462721;111;923527;-84
2021/11/21 02:16:22;;;;;;;2.51;1.40;;;;;;;3.48;67.91;100181.27;461932;113;922954;-84
2021/11/21 02:17:28;;;;;;;1.57;0.96;;;;;;;3.48;67.88;100175.87;462293;111;922588;-84
2021/11/21 02:18:32;;;;;;;1.58;1.19;;;;;;;3.47;67.87;100169.67;453922;114;922677;-84
2021/11/21 02:19:35;;;;;;;2.05;1.10;;;;;;;3.46;67.86;100165.30;453694;114;922700;-84
2021/11/21 02:20:59;;;;;;;1.44;0.97;;;;;;;3.45;67.84;100163.61;463269;111;922532;-84
2021/11/21 02:22:04;;;;;;;1.98;1.25;;;;;;;3.45;67.91;100169.00;461645;112;922569;-84
2021/11/21 02:23:09;;;;;;;2.04;1.13;;;;;;;3.45;67.96;100169.00;461034;111;922603;-84
2021/11/21 02:24:13;;;;;;;1.88;1.17;;;;;;;3.46;68.04;100173.38;462282;112;922604;-84
2021/11/21 02:25:18;;;;;;;1.89;1.19;;;;;;;3.47;68.12;100174.22;461253;113;930383;-84
2021/11/21 02:26:22;;;;;;;1.36;1.11;;;;;;;3.48;68.12;100171.33;461737;112;922622;-85
2021/11/21 02:27:29;;;;;;;1.78;1.08;;;;;;;3.49;68.17;100167.62;461217;112;922641;-84
2021/11/21 02:28:35;;;;;;;1.27;1.17;;;;;;;3.52;68.13;100172.67;462880;111;922681;-84
2021/11/21 02:29:39;;;;;;;1.21;0.94;;;;;;;3.53;68.09;100171.63;462738;113;922566;-84
2021/11/21 02:30:44;;;;;;;1.28;1.15;;;;;;;3.53;67.95;100182.41;461822;112;922515;-85
2021/11/21 02:31:48;;;;;;;1.36;0.90;;;;;;;3.52;67.86;100177.22;461476;111;922586;-83
2021/11/21 02:32:54;;;;;;;1.89;1.35;;;;;;;3.50;67.91;100181.94;462065;112;922626;-84
2021/11/21 02:33:58;;;;;;;1.65;1.07;;;;;;;3.51;68.04;100184.46;462482;113;922757;-84
2021/11/21 02:35:02;;;;;;;2.41;1.32;;;;;;;3.53;68.00;100173.51;455360;114;922685;-83
2021/11/21 02:36:07;;;;;;;1.82;1.28;;;;;;;3.53;67.94;100173.51;456229;114;922719;-84
2021/11/21 02:37:10;;;;;;;2.27;1.16;;;;;;;3.53;67.96;100178.90;461680;112;922628;-83
2021/11/21 02:38:34;;;;;;;1.89;1.28;;;;;;;3.53;67.97;100179.71;461722;112;922609;-84
2021/11/21 02:39:39;;;;;;;1.67;0.87;;;;;;;3.55;68.06;100180.38;463061;111;922923;-83
2021/11/21 02:40:43;;;;;;;1.63;1.03;;;;;;;3.57;68.01;100177.52;463275;112;923105;-85
2021/11/21 02:41:47;;;;;;;1.74;1.32;;;;;;;3.57;67.96;100182.91;460235;113;922507;-82
2021/11/21 02:43:09;;;;;;;2.06;1.02;;;;;;;3.56;67.95;100178.53;461757;112;922626;-83
2021/11/21 02:44:13;;;;;;;1.06;0.87;;;;;;;3.57;68.05;100182.91;461047;112;922595;-85
2021/11/21 02:45:18;;;;;;;1.81;1.13;;;;;;;3.55;68.03;100177.69;461537;112;922702;-83
2021/11/21 02:46:23;;;;;;;1.56;1.01;;;;;;;3.56;68.03;100183.92;462144;111;922716;-83
2021/11/21 02:47:45;;;;;;;1.58;0.99;;;;;;;3.56;68.06;100183.92;460616;111;922883;-83
2021/11/21 02:48:49;;;;;;;2.07;1.11;;;;;;;3.57;68.06;100186.44;462102;112;922574;-83
2021/11/21 02:49:53;;;;;;;2.18;1.39;;;;;;;3.56;67.99;100178.53;462112;112;922504;-84
2021/11/21 02:50:59;;;;;;;1.29;1.19;;;;;;;3.55;68.03;100193.86;462552;114;922566;-84
2021/11/21 02:52:05;;;;;;;2.86;1.29;;;;;;;3.55;67.98;100193.86;460859;112;922617;-83
2021/11/21 02:53:09;;;;;;;2.79;0.94;;;;;;;3.54;68.04;100196.72;461093;112;922636;-83
2021/11/21 02:54:13;;;;;;;1.05;0.91;;;;;;;3.53;68.00;100187.80;460501;112;922684;-84
2021/11/21 02:55:19;;;;;;;1.53;0.91;;;;;;;3.54;68.01;100199.42;461150;113;922648;-85
2021/11/21 02:56:23;;;;;;;2.00;1.15;;;;;;;3.54;68.01;100200.27;461785;114;922586;-84
2021/11/21 02:57:27;;;;;;;1.18;0.77;;;;;;;3.54;67.92;100199.42;463554;112;923021;-83
2021/11/21 02:58:32;;;;;;;1.08;0.82;;;;;;;3.52;67.96;100202.32;463911;111;923035;-83
2021/11/21 02:59:37;;;;;;;1.20;1.10;;;;;;;3.52;67.97;100202.32;462187;112;922541;-83
2021/11/21 03:00:41;;;;;;;1.29;0.92;;;;;;;3.52;67.98;100207.70;462944;112;922701;-81
2021/11/21 03:01:45;;;;;;;1.96;1.05;;;;;;;3.52;67.91;100205.02;456945;114;922661;-83
2021/11/21 03:02:50;;;;;;;0.91;0.73;;;;;;;3.52;67.87;100204.17;455811;112;922653;-80
2021/11/21 03:03:57;;;;;;;1.06;0.82;;;;;;;3.51;67.87;100197.09;462838;111;922614;-84
2021/11/21 03:05:00;;;;;;;1.34;0.91;;;;;;;3.50;67.83;100208.89;461157;112;923173;-84
2021/11/21 03:06:04;;;;;;;1.11;0.92;;;;;;;3.49;67.90;100204.51;461932;112;922622;-81
2021/11/21 03:07:09;;;;;;;1.18;0.84;;;;;;;3.49;67.90;100201.81;446786;117;922389;-83
2021/11/21 03:08:13;;;;;;;2.83;1.00;;;;;;;3.48;67.91;100214.45;462401;112;922688;-82
2021/11/21 03:09:22;;;;;;;1.47;1.09;;;;;;;3.48;67.90;100208.22;462421;113;922760;-81
2021/11/21 03:10:28;;;;;;;1.86;1.17;;;;;;;3.46;67.94;100205.72;464345;111;922965;-80
2021/11/21 03:11:35;;;;;;;2.68;0.79;;;;;;;3.46;68.00;100213.81;461130;112;922854;-82
2021/11/21 03:12:39;;;;;;;1.03;0.82;;;;;;;3.46;68.04;100210.27;462150;112;922553;-82
2021/11/21 03:13:44;;;;;;;1.96;1.11;;;;;;;3.47;68.10;100202.02;461958;112;922594;-84
2021/11/21 03:14:48;;;;;;;1.10;1.00;;;;;;;3.48;68.07;100206.36;463063;111;922442;-84
2021/11/21 03:15:52;;;;;;;2.79;1.16;;;;;;;3.49;68.06;100204.51;462155;113;929913;-81
2021/11/21 03:16:56;;;;;;;1.05;0.84;;;;;;;3.50;68.10;100206.19;463822;112;922290;-79
2021/11/21 03:18:01;;;;;;;2.19;1.54;;;;;;;3.52;68.12;100209.56;463421;112;922288;-81
2021/11/21 03:19:05;;;;;;;2.55;1.22;;;;;;;3.52;68.06;100209.56;462341;112;922608;-81
2021/11/21 03:20:12;;;;;;;1.96;1.38;;;;;;;3.52;68.04;100207.70;461844;112;922462;-83
2021/11/21 03:21:17;;;;;;;2.06;1.10;;;;;;;3.52;67.97;100205.02;457675;111;922520;-85
2021/11/21 03:22:21;;;;;;;2.01;1.30;;;;;;;3.52;67.99;100205.02;461909;112;922470;-81
2021/11/21 03:23:25;;;;;;;1.41;0.92;;;;;;;3.53;68.03;100212.05;462841;113;922514;-85
2021/11/21 03:24:29;;;;;;;1.99;1.34;;;;;;;3.54;68.07;100204.81;461008;112;922699;-82
2021/11/21 03:25:34;;;;;;;2.46;1.63;;;;;;;3.54;68.03;100204.81;463070;112;922363;-82
2021/11/21 03:26:38;;;;;;;2.42;1.80;;;;;;;3.54;68.00;100212.90;462214;112;922337;-82
2021/11/21 03:27:42;;;;;;;1.51;1.41;;;;;;;3.54;67.87;100204.81;461579;111;922740;-82
2021/11/21 03:28:46;;;;;;;1.96;1.49;;;;;;;3.51;67.83;100214.11;455884;114;922596;-83
2021/11/21 03:29:50;;;;;;;2.25;1.83;;;;;;;3.51;67.82;100213.27;455679;114;922815;-83
2021/11/21 03:30:53;;;;;;;1.89;1.44;;;;;;;3.50;67.79;100212.42;460775;113;922578;-83
2021/11/21 03:32:05;;;;;;;3.80;1.83;;;;;;;3.49;67.74;100208.05;448887;116;923554;-84
2021/11/21 03:34:43;;;;;;;2.39;1.87;;;;;;;3.46;67.71;100210.27;463264;112;930851;-83
2021/11/21 03:35:47;;;;;;;3.07;2.74;;;;;;;3.44;67.75;100205.05;450072;116;923090;-85
2021/11/21 03:37:09;;;;;;;4.19;3.23;;;;;;;3.42;67.75;100211.66;462097;112;923052;-82
2021/11/21 03:38:13;;;;;;;3.52;2.52;;;;;;;3.38;67.69;100216.54;461185;112;923093;-84
2021/11/21 03:39:36;;;;;;;2.54;2.24;;;;;;;3.35;67.68;100220.45;462440;111;922700;-86
2021/11/21 03:40:39;;;;;;;2.38;2.10;;;;;;;3.32;67.69;100218.09;460900;111;922499;-85
2021/11/21 03:42:03;;;;;;;2.59;2.00;;;;;;;3.27;67.68;100216.94;461928;112;923051;-85
2021/11/21 03:44:35;;;;;;;3.12;1.88;;;;;;;3.18;67.90;100215.31;461046;112;922632;-85
2021/11/21 03:45:38;;;;;;;1.96;1.81;;;;;;;3.15;68.04;100212.95;462976;112;922617;-84
2021/11/21 03:46:44;;;;;;;3.16;1.86;;;;;;;3.12;68.13;100213.31;462368;111;922604;-82
2021/11/21 03:49:20;;;;;;;1.68;1.53;;;;;;;3.11;68.19;100214.33;462983;111;922630;-86
2021/11/21 03:50:24;;;;;;;2.96;1.86;;;;;;;3.10;68.37;100210.80;464124;112;923006;-82
2021/11/21 03:51:28;;;;;;;1.87;1.64;;;;;;;3.12;68.36;100213.31;463611;112;922689;-82
2021/11/21 03:52:32;;;;;;;2.12;1.66;;;;;;;3.13;68.44;100207.77;462860;111;923146;-82
2021/11/21 03:53:36;;;;;;;1.88;1.68;;;;;;;3.14;68.44;100206.72;462114;113;922530;-85
2021/11/21 03:54:40;;;;;;;1.65;1.23;;;;;;;3.16;68.47;100211.94;463355;111;922548;-83
2021/11/21 03:55:45;;;;;;;2.32;1.44;;;;;;;3.17;68.48;100209.08;461970;111;922652;-83
2021/11/21 03:56:49;;;;;;;2.31;1.76;;;;;;;3.19;68.43;100211.61;463713;111;922547;-83
2021/11/21 03:57:53;;;;;;;1.66;1.38;;;;;;;3.20;68.39;100221.34;463194;113;930297;-84
2021/11/21 03:58:57;;;;;;;1.60;1.50;;;;;;;3.20;68.32;100208.72;464835;112;922553;-82
2021/11/21 04:00:00;;;;;;;2.33;1.35;;;;;;;3.21;68.24;100209.55;464482;113;922961;-84
2021/11/21 04:01:06;;;;;;;2.21;1.36;;;;;;;3.20;68.18;100219.48;462225;111;922792;-86
2021/11/21 04:02:10;;;;;;;2.67;1.82;;;;;;;3.20;68.22;100224.03;463741;111;922574;-85
2021/11/21 04:03:18;;;;;;;1.86;1.22;;;;;;;3.19;68.19;100225.92;463408;111;922706;-83
2021/11/21 04:04:21;;;;;;;2.12;1.42;;;;;;;3.18;68.13;100220.70;464529;112;922434;-82
2021/11/21 04:05:28;;;;;;;2.18;1.54;;;;;;;3.16;68.09;100225.41;463380;111;922552;-87
2021/11/21 04:06:33;;;;;;;2.28;1.62;;;;;;;3.13;68.15;100221.23;462606;113;922463;-83
2021/11/21 04:07:37;;;;;;;2.38;1.67;;;;;;;3.12;68.19;100221.40;463122;111;922674;-84
2021/11/21 04:08:42;;;;;;;1.92;1.53;;;;;;;3.12;68.24;100224.09;463717;112;922601;-84
2021/11/21 04:09:46;;;;;;;2.12;1.57;;;;;;;3.11;68.29;100223.25;462725;111;922627;-83
2021/11/21 04:10:54;;;;;;;1.98;1.59;;;;;;;3.13;68.34;100220.39;463164;111;922401;-83
2021/11/21 04:11:59;;;;;;;2.47;1.41;;;;;;;3.14;68.35;100225.58;462834;111;922473;-81
2021/11/21 04:13:06;;;;;;;2.12;1.57;;;;;;;3.15;68.35;100219.19;461771;111;923042;-81
2021/11/21 04:14:11;;;;;;;2.17;1.53;;;;;;;3.18;68.43;100220.70;466195;112;930520;-83
2021/11/21 04:15:33;;;;;;;3.33;1.54;;;;;;;3.20;68.38;100213.27;463218;111;923049;-83
2021/11/21 04:16:38;;;;;;;3.74;1.38;;;;;;;3.22;68.32;100208.55;464562;111;922579;-86
2021/11/21 04:17:46;;;;;;;1.66;1.53;;;;;;;3.25;68.30;100214.41;465240;111;922592;-83
2021/11/21 04:18:48;;;;;;;1.93;1.13;;;;;;;3.27;68.30;100215.08;462932;113;922643;-83
2021/11/21 04:19:53;;;;;;;2.30;1.51;;;;;;;3.31;68.23;100231.72;463131;111;922662;-83
2021/11/21 04:20:58;;;;;;;3.14;1.37;;;;;;;3.33;68.25;100227.02;465213;111;922887;-82
2021/11/21 04:22:03;;;;;;;1.68;1.33;;;;;;;3.37;68.18;100228.33;462261;111;922825;-85
2021/11/21 04:23:08;;;;;;;2.14;1.48;;;;;;;3.38;68.05;100230.02;463255;111;922505;-83
2021/11/21 04:24:13;;;;;;;1.50;1.21;;;;;;;3.39;68.01;100230.86;463811;111;922408;-83
2021/11/21 04:25:17;;;;;;;3.31;1.22;;;;;;;3.40;67.94;100232.54;463146;112;923873;-84
2021/11/21 04:26:22;;;;;;;1.57;1.21;;;;;;;3.41;67.90;100221.59;463352;111;930329;-81
2021/11/21 04:27:27;;;;;;;1.51;1.09;;;;;;;3.42;67.82;100219.73;462105;112;923034;-85
2021/11/21 04:28:31;;;;;;;2.39;1.63;;;;;;;3.43;67.78;100214.15;463645;111;922709;-85
2021/11/21 04:29:35;;;;;;;1.89;1.55;;;;;;;3.44;67.72;100212.30;462833;111;922767;-82
2021/11/21 04:30:39;;;;;;;1.12;0.94;;;;;;;3.44;67.63;100199.66;463163;112;922984;-83
2021/11/21 04:31:43;;;;;;;4.50;1.28;;;;;;;3.44;67.63;100186.19;462970;111;922602;-83
2021/11/21 04:32:47;;;;;;;1.42;1.13;;;;;;;3.45;67.63;100190.56;462344;111;922467;-82
2021/11/21 04:33:51;;;;;;;2.53;1.73;;;;;;;3.46;67.59;100183.32;464019;111;922651;-87
2021/11/21 04:34:57;;;;;;;4.32;1.82;;;;;;;3.45;67.49;100182.48;463480;111;930520;-86
2021/11/21 04:36:01;;;;;;;2.33;2.11;;;;;;;3.45;67.43;100189.72;464042;111;922758;-82
2021/11/21 04:37:05;;;;;;;1.54;1.39;;;;;;;3.42;67.34;100193.59;464251;112;922569;-83
2021/11/21 04:38:09;;;;;;;1.71;1.48;;;;;;;3.40;67.30;100194.81;462775;111;922465;-77
2021/11/21 04:39:13;;;;;;;2.34;1.59;;;;;;;3.37;67.31;100195.98;463803;111;922656;-81
2021/11/21 04:40:18;;;;;;;2.20;1.66;;;;;;;3.36;67.32;100202.42;464006;111;922766;-81
2021/11/21 04:41:22;;;;;;;1.94;1.47;;;;;;;3.34;67.34;100205.28;455841;113;922994;-83
2021/11/21 04:42:26;;;;;;;1.79;1.56;;;;;;;3.32;67.34;100209.16;454866;112;922770;-81
2021/11/21 04:43:30;;;;;;;3.19;1.45;;;;;;;3.31;67.34;100218.25;463951;111;922568;-81
2021/11/21 04:44:42;;;;;;;1.97;1.40;;;;;;;3.28;67.36;100226.70;463739;111;923011;-82
2021/11/21 04:45:46;;;;;;;2.88;1.79;;;;;;;3.24;67.32;100231.62;464232;111;922519;-83
2021/11/21 04:46:50;;;;;;;2.69;1.60;;;;;;;3.20;67.39;100227.57;455216;113;922551;-84
2021/11/21 04:47:55;;;;;;;2.69;1.89;;;;;;;3.18;67.42;100228.78;455599;113;924146;-82
2021/11/21 04:48:59;;;;;;;2.20;1.69;;;;;;;3.14;67.47;100236.35;454711;113;923170;-81
2021/11/21 04:50:04;;;;;;;4.24;1.95;;;;;;;3.09;67.46;100246.00;450020;115;922704;-80
2021/11/21 04:51:11;;;;;;;2.38;1.59;;;;;;;3.09;67.46;100246.00;457183;113;922436;-82
2021/11/21 04:52:14;;;;;;;2.01;1.64;;;;;;;3.06;67.70;100241.80;449404;115;922735;-82
2021/11/21 04:53:18;;;;;;;2.59;2.02;;;;;;;3.04;67.74;100245.66;450242;115;922632;-82
2021/11/21 04:54:25;;;;;;;2.15;1.54;;;;;;;3.02;67.83;100243.16;455214;113;922553;-80
2021/11/21 04:55:28;;;;;;;3.42;1.73;;;;;;;3.00;67.95;100252.42;455071;113;922690;-84
2021/11/21 04:56:31;;;;;;;4.19;1.76;;;;;;;2.98;67.99;100257.97;450417;116;922981;-85
2021/11/21 04:57:42;;;;;;;2.86;2.00;;;;;;;2.97;68.05;100261.70;445518;116;922616;-83
2021/11/21 04:58:46;;;;;;;6.40;1.87;;;;;;;2.97;68.06;100268.94;444771;116;922746;-82
2021/11/21 04:59:50;;;;;;;2.17;1.56;;;;;;;2.96;68.15;100267.25;445531;116;922725;-80
2021/11/21 05:00:54;;;;;;;2.59;1.62;;;;;;;2.94;68.19;100267.41;445340;117;923505;-85
2021/11/21 05:01:58;;;;;;;2.72;1.49;;;;;;;2.93;68.27;100265.73;445287;116;922603;-84
2021/11/21 05:03:03;;;;;;;2.17;1.63;;;;;;;2.93;68.30;100265.73;444856;116;923092;-82
2021/11/21 05:04:06;;;;;;;2.43;1.77;;;;;;;2.93;68.30;100269.27;445759;116;922797;-84
2021/11/21 05:05:12;;;;;;;3.83;2.38;;;;;;;2.91;68.26;100265.93;445956;116;922620;-83
2021/11/21 05:06:18;;;;;;;2.49;1.88;;;;;;;2.89;68.27;100264.41;446028;116;922897;-84
2021/11/21 05:07:21;;;;;;;2.96;1.68;;;;;;;2.87;68.35;100259.19;439822;118;923161;-83
2021/11/21 05:08:25;;;;;;;3.14;1.88;;;;;;;2.86;68.42;100268.30;441781;115;922781;-83
2021/11/21 05:09:30;;;;;;;3.02;2.34;;;;;;;2.86;68.45;100271.00;451289;115;922969;-83
2021/11/21 05:10:35;;;;;;;2.81;1.76;;;;;;;2.86;68.51;100278.23;450919;115;922691;-84
2021/11/21 05:11:39;;;;;;;2.55;1.82;;;;;;;2.85;68.55;100272.00;445024;116;922676;-82
2021/11/21 05:12:43;;;;;;;2.82;1.78;;;;;;;2.85;68.53;100276.55;445408;116;922772;-82
2021/11/21 05:13:47;;;;;;;2.55;1.58;;;;;;;2.85;68.57;100274.69;445020;117;922938;-81
2021/11/21 05:14:58;;;;;;;3.18;1.99;;;;;;;2.85;68.62;100271.16;444145;116;923161;-83
2021/11/21 05:16:02;;;;;;;2.74;1.93;;;;;;;2.87;68.66;100269.95;454179;114;922789;-84
2021/11/21 05:17:06;;;;;;;2.28;1.82;;;;;;;2.88;68.64;100270.80;454214;114;922600;-84